Papanduva, Brazil
Current Conditions -  °F | °C
As of 7:00 AM on Friday 19 Dec 2014 (Local Time) from SBJV Reporting Station
Light Rain Light Rain  
Wind Chill: 70°   Ceiling: 400
Heat Index: 70°   Visibility: 1.2mi
Dew Point: 68°   Wind: 2mph
Humidity: 94%   Direction: 260°W
Pressure: 29.83"   Gusts: NA
Location:  26.41°S, 50.14°W
Report Text: SBJV 190900Z 26002KT 2000 -RA BR BKN004 OVC012 21/20 Q1010
Loading
Personal Weather Stations






























Interactive Weather Map New forecast layout! Learn more

10-Day Weather Forecast

Advertisements
Track Severe Weather on mobile